Time,TemperatureF,DewpointF,PressureIn,WindDirection,WindDirectionDegrees,WindSpeedMPH,WindSpeedGustMPH,Humidity,HourlyPrecipIn,Conditions,Clouds,dailyrainin,SoftwareType,DateUTC
2013-04-27 00:01:00,55.0,50.0,30.02,West,281,0.0,0.0,83,0.00,,,-99.99,,2013-04-27 07:01:00,
2013-04-27 00:32:00,54.0,49.0,30.01,West,281,0.0,0.0,83,0.00,,,-99.99,,2013-04-27 07:32:00,
2013-04-27 00:42:00,54.0,49.0,30.01,West,281,0.0,0.0,83,0.00,,,-99.99,,2013-04-27 07:42:00,
2013-04-27 00:52:00,54.0,49.0,30.01,West,281,0.0,0.0,83,0.00,,,-99.99,,2013-04-27 07:52:00,
2013-04-27 01:01:00,54.0,49.0,30.01,West,281,0.0,0.0,83,0.00,,,-99.99,,2013-04-27 08:01:00,
2013-04-27 01:33:00,54.0,50.0,30.01,West,281,0.0,0.0,85,0.00,,,-99.99,,2013-04-27 08:33:00,
2013-04-27 01:42:00,54.0,50.0,30.01,West,281,0.0,0.0,85,0.00,,,-99.99,,2013-04-27 08:42:00,
2013-04-27 01:52:00,54.0,50.0,30.01,West,281,0.0,0.0,85,0.00,,,-99.99,,2013-04-27 08:52:00,
2013-04-27 02:01:00,55.0,50.0,30.01,West,281,0.0,0.0,83,0.00,,,-99.99,,2013-04-27 09:01:00,
2013-04-27 02:11:00,55.0,50.0,30.01,West,281,0.0,0.0,83,0.00,,,-99.99,,2013-04-27 09:11:00,
2013-04-27 02:21:00,55.0,50.0,30.01,West,281,0.0,0.0,83,0.00,,,-99.99,,2013-04-27 09:21:00,
2013-04-27 02:33:00,55.0,50.0,30.01,West,281,0.0,0.0,83,0.00,,,-99.99,,2013-04-27 09:33:00,
2013-04-27 03:02:00,53.0,49.0,30.01,West,281,0.0,1.0,85,0.00,,,-99.99,,2013-04-27 10:02:00,
2013-04-27 03:12:00,53.0,49.0,30.01,West,281,0.0,1.0,85,0.00,,,-99.99,,2013-04-27 10:12:00,
2013-04-27 03:22:00,53.0,49.0,30.01,West,281,0.0,1.0,85,0.00,,,-99.99,,2013-04-27 10:22:00,
2013-04-27 03:32:00,52.0,48.0,30.00,West,281,0.0,1.0,85,0.00,,,-99.99,,2013-04-27 10:32:00,
2013-04-27 03:42:00,52.0,48.0,30.00,West,281,0.0,1.0,85,0.00,,,-99.99,,2013-04-27 10:42:00,
2013-04-27 03:52:00,52.0,48.0,30.00,West,281,0.0,1.0,85,0.00,,,-99.99,,2013-04-27 10:52:00,
2013-04-27 04:02:00,53.0,49.0,30.00,WNW,292,0.0,2.0,86,0.00,,,-99.99,,2013-04-27 11:02:00,
2013-04-27 04:11:00,53.0,49.0,30.00,WNW,292,0.0,2.0,86,0.00,,,-99.99,,2013-04-27 11:11:00,
2013-04-27 04:22:00,53.0,49.0,30.00,WNW,292,0.0,2.0,86,0.00,,,-99.99,,2013-04-27 11:22:00,
2013-04-27 04:31:00,53.0,49.0,30.00,WNW,292,0.0,2.0,86,0.00,,,-99.99,,2013-04-27 11:31:00,
2013-04-27 05:01:00,52.0,49.0,29.99,North,355,0.0,1.0,88,0.00,,,-99.99,,2013-04-27 12:01:00,
2013-04-27 05:11:00,52.0,49.0,29.99,North,355,0.0,1.0,88,0.00,,,-99.99,,2013-04-27 12:11:00,
2013-04-27 05:21:00,52.0,49.0,29.99,North,355,0.0,1.0,88,0.00,,,-99.99,,2013-04-27 12:21:00,
2013-04-27 05:32:00,52.0,49.0,29.99,North,355,0.0,0.0,89,0.00,,,-99.99,,2013-04-27 12:32:00,
2013-04-27 05:42:00,52.0,49.0,29.99,North,355,0.0,0.0,89,0.00,,,-99.99,,2013-04-27 12:42:00,
2013-04-27 05:52:00,52.0,49.0,29.99,North,355,0.0,0.0,89,0.00,,,-99.99,,2013-04-27 12:52:00,
2013-04-27 06:01:00,51.0,48.0,29.99,North,355,0.0,0.0,89,0.00,,,-99.99,,2013-04-27 13:01:00,
2013-04-27 06:11:00,51.0,48.0,29.99,North,355,0.0,0.0,89,0.00,,,-99.99,,2013-04-27 13:11:00,
2013-04-27 06:21:00,51.0,48.0,29.99,North,355,0.0,0.0,89,0.00,,,-99.99,,2013-04-27 13:21:00,
2013-04-27 06:32:00,51.0,48.0,29.99,North,355,0.0,0.0,89,0.00,,,-99.99,,2013-04-27 13:32:00,
2013-04-27 07:02:00,52.0,49.0,30.00,North,355,0.0,1.0,90,0.00,,,-99.99,,2013-04-27 14:02:00,
2013-04-27 07:11:00,52.0,49.0,30.00,North,355,0.0,1.0,90,0.00,,,-99.99,,2013-04-27 14:11:00,
2013-04-27 07:21:00,52.0,49.0,30.00,North,355,0.0,1.0,90,0.00,,,-99.99,,2013-04-27 14:21:00,
2013-04-27 07:31:00,52.0,49.0,30.01,North,355,0.0,2.0,90,0.00,,,-99.99,,2013-04-27 14:31:00,
2013-04-27 07:42:00,52.0,49.0,30.01,North,355,0.0,2.0,90,0.00,,,-99.99,,2013-04-27 14:42:00,
2013-04-27 07:52:00,52.0,49.0,30.01,North,355,0.0,2.0,90,0.00,,,-99.99,,2013-04-27 14:52:00,
2013-04-27 08:01:00,52.0,49.0,30.01,North,355,0.0,2.0,91,0.00,,,-99.99,,2013-04-27 15:01:00,
2013-04-27 08:11:00,52.0,49.0,30.01,North,355,0.0,2.0,91,0.00,,,-99.99,,2013-04-27 15:11:00,
2013-04-27 08:21:00,52.0,49.0,30.01,North,355,0.0,2.0,91,0.00,,,-99.99,,2013-04-27 15:21:00,
2013-04-27 08:33:00,53.0,50.0,30.01,North,355,0.0,2.0,91,0.00,,,-99.99,,2013-04-27 15:33:00,
2013-04-27 08:43:00,53.0,50.0,30.01,North,355,0.0,2.0,91,0.00,,,-99.99,,2013-04-27 15:43:00,
2013-04-27 08:53:00,53.0,50.0,30.01,North,355,0.0,2.0,91,0.00,,,-99.99,,2013-04-27 15:53:00,
2013-04-27 09:02:00,55.0,53.0,30.01,North,355,0.0,1.0,92,0.00,,,-99.99,,2013-04-27 16:02:00,
2013-04-27 09:13:00,55.0,53.0,30.01,North,355,0.0,1.0,92,0.00,,,-99.99,,2013-04-27 16:13:00,
2013-04-27 09:32:00,58.0,55.0,30.01,West,266,0.0,4.0,89,0.00,,,-99.99,,2013-04-27 16:32:00,
2013-04-27 09:42:00,58.0,55.0,30.01,West,266,0.0,4.0,89,0.00,,,-99.99,,2013-04-27 16:42:00,
2013-04-27 10:02:00,61.0,55.0,30.01,WNW,285,1.0,5.0,80,0.00,,,-99.99,,2013-04-27 17:02:00,
2013-04-27 10:11:00,61.0,55.0,30.01,WNW,285,1.0,5.0,80,0.00,,,-99.99,,2013-04-27 17:11:00,
2013-04-27 10:22:00,61.0,55.0,30.01,WNW,285,1.0,5.0,80,0.00,,,-99.99,,2013-04-27 17:22:00,
2013-04-27 10:31:00,64.0,54.0,30.01,SW,227,1.0,5.0,71,0.00,,,-99.99,,2013-04-27 17:31:00,
2013-04-27 10:42:00,64.0,54.0,30.01,SW,227,1.0,5.0,71,0.00,,,-99.99,,2013-04-27 17:42:00,
2013-04-27 10:53:00,64.0,54.0,30.01,SW,227,1.0,5.0,71,0.00,,,-99.99,,2013-04-27 17:53:00,
2013-04-27 11:02:00,67.0,54.0,30.01,West,260,1.0,5.0,64,0.00,,,-99.99,,2013-04-27 18:02:00,
2013-04-27 11:11:00,67.0,54.0,30.01,West,260,1.0,5.0,64,0.00,,,-99.99,,2013-04-27 18:11:00,
2013-04-27 11:22:00,67.0,54.0,30.01,West,260,1.0,5.0,64,0.00,,,-99.99,,2013-04-27 18:22:00,
2013-04-27 11:32:00,69.0,55.0,30.01,WSW,243,1.0,6.0,62,0.00,,,-99.99,,2013-04-27 18:32:00,
2013-04-27 11:42:00,69.0,55.0,30.01,WSW,243,1.0,6.0,62,0.00,,,-99.99,,2013-04-27 18:42:00,
2013-04-27 11:52:00,69.0,55.0,30.01,WSW,243,1.0,6.0,62,0.00,,,-99.99,,2013-04-27 18:52:00,
2013-04-27 12:01:00,69.0,55.0,30.01,SW,226,1.0,5.0,60,0.00,,,-99.99,,2013-04-27 19:01:00,
2013-04-27 12:11:00,69.0,55.0,30.01,SW,226,1.0,5.0,60,0.00,,,-99.99,,2013-04-27 19:11:00,
2013-04-27 12:21:00,69.0,55.0,30.01,SW,226,1.0,5.0,60,0.00,,,-99.99,,2013-04-27 19:21:00,
2013-04-27 12:31:00,70.0,55.0,30.01,South,175,2.0,10.0,58,0.00,,,-99.99,,2013-04-27 19:31:00,
2013-04-27 12:42:00,70.0,55.0,30.01,South,175,2.0,10.0,58,0.00,,,-99.99,,2013-04-27 19:42:00,
2013-04-27 12:53:00,70.0,55.0,30.01,South,175,2.0,10.0,58,0.00,,,-99.99,,2013-04-27 19:53:00,
2013-04-27 13:02:00,70.0,55.0,30.01,South,175,2.0,10.0,58,0.00,,,-99.99,,2013-04-27 20:02:00,
2013-04-27 14:02:00,71.0,54.0,29.97,South,173,2.0,7.0,55,0.00,,,-99.99,,2013-04-27 21:02:00,
2013-04-27 14:11:00,71.0,54.0,29.97,South,173,2.0,7.0,55,0.00,,,-99.99,,2013-04-27 21:11:00,
2013-04-27 14:21:00,71.0,54.0,29.97,South,173,2.0,7.0,55,0.00,,,-99.99,,2013-04-27 21:21:00,
2013-04-27 14:32:00,72.0,54.0,29.96,South,190,1.0,7.0,53,0.00,,,-99.99,,2013-04-27 21:32:00,
2013-04-27 14:43:00,72.0,54.0,29.96,South,190,1.0,7.0,53,0.00,,,-99.99,,2013-04-27 21:43:00,
2013-04-27 14:53:00,72.0,54.0,29.96,South,190,1.0,7.0,53,0.00,,,-99.99,,2013-04-27 21:53:00,
2013-04-27 15:02:00,72.0,54.0,29.96,South,190,1.0,7.0,53,0.00,,,-99.99,,2013-04-27 22:02:00,
2013-04-27 15:32:00,72.0,53.0,29.93,South,188,1.0,5.0,52,0.00,,,-99.99,,2013-04-27 22:32:00,
2013-04-27 15:42:00,72.0,53.0,29.93,South,188,1.0,5.0,52,0.00,,,-99.99,,2013-04-27 22:42:00,
2013-04-27 15:52:00,72.0,53.0,29.93,South,188,1.0,5.0,52,0.00,,,-99.99,,2013-04-27 22:52:00,
2013-04-27 16:02:00,72.0,53.0,29.92,SW,214,1.0,6.0,51,0.00,,,-99.99,,2013-04-27 23:02:00,
2013-04-27 16:11:00,72.0,53.0,29.92,SW,214,1.0,6.0,51,0.00,,,-99.99,,2013-04-27 23:11:00,
2013-04-27 16:22:00,72.0,53.0,29.92,SW,214,1.0,6.0,51,0.00,,,-99.99,,2013-04-27 23:22:00,
2013-04-27 16:32:00,72.0,53.0,29.92,SW,214,1.0,6.0,51,0.00,,,-99.99,,2013-04-27 23:32:00,
2013-04-27 17:01:00,72.0,52.0,29.91,South,184,1.0,6.0,50,0.00,,,-99.99,,2013-04-28 00:01:00,
2013-04-27 17:11:00,72.0,52.0,29.91,South,184,1.0,6.0,50,0.00,,,-99.99,,2013-04-28 00:11:00,
2013-04-27 17:21:00,72.0,52.0,29.91,South,184,1.0,6.0,50,0.00,,,-99.99,,2013-04-28 00:21:00,
2013-04-27 17:31:00,71.0,53.0,29.91,WNW,294,2.0,7.0,53,0.00,,,-99.99,,2013-04-28 00:31:00,
2013-04-27 17:43:00,71.0,53.0,29.91,WNW,294,2.0,7.0,53,0.00,,,-99.99,,2013-04-28 00:43:00,
2013-04-27 17:52:00,71.0,53.0,29.91,WNW,294,2.0,7.0,53,0.00,,,-99.99,,2013-04-28 00:52:00,
2013-04-27 18:01:00,69.0,52.0,29.91,West,264,2.0,10.0,55,0.00,,,-99.99,,2013-04-28 01:01:00,
2013-04-27 18:11:00,69.0,52.0,29.91,West,264,2.0,10.0,55,0.00,,,-99.99,,2013-04-28 01:11:00,
2013-04-27 18:21:00,69.0,52.0,29.91,West,264,2.0,10.0,55,0.00,,,-99.99,,2013-04-28 01:21:00,
2013-04-27 18:31:00,68.0,52.0,29.90,West,270,2.0,10.0,56,0.00,,,-99.99,,2013-04-28 01:31:00,
2013-04-27 18:42:00,68.0,52.0,29.90,West,270,2.0,10.0,56,0.00,,,-99.99,,2013-04-28 01:42:00,
2013-04-27 18:52:00,68.0,52.0,29.90,West,270,2.0,10.0,56,0.00,,,-99.99,,2013-04-28 01:52:00,
2013-04-27 19:01:00,66.0,51.0,29.89,West,267,1.0,6.0,59,0.00,,,-99.99,,2013-04-28 02:01:00,
2013-04-27 19:12:00,66.0,51.0,29.89,West,267,1.0,6.0,59,0.00,,,-99.99,,2013-04-28 02:12:00,
2013-04-27 19:21:00,66.0,51.0,29.89,West,267,1.0,6.0,59,0.00,,,-99.99,,2013-04-28 02:21:00,
2013-04-27 19:31:00,65.0,51.0,29.88,West,267,0.0,1.0,61,0.00,,,-99.99,,2013-04-28 02:31:00,
2013-04-27 19:42:00,65.0,51.0,29.88,West,267,0.0,1.0,61,0.00,,,-99.99,,2013-04-28 02:42:00,
2013-04-27 19:52:00,65.0,51.0,29.88,West,267,0.0,1.0,61,0.00,,,-99.99,,2013-04-28 02:52:00,
2013-04-27 20:01:00,64.0,52.0,29.88,West,263,0.0,4.0,66,0.00,,,-99.99,,2013-04-28 03:01:00,
2013-04-27 20:11:00,64.0,52.0,29.88,West,263,0.0,4.0,66,0.00,,,-99.99,,2013-04-28 03:11:00,
2013-04-27 20:21:00,64.0,52.0,29.88,West,263,0.0,4.0,66,0.00,,,-99.99,,2013-04-28 03:21:00,
2013-04-27 20:32:00,61.0,52.0,29.88,West,263,0.0,2.0,73,0.00,,,-99.99,,2013-04-28 03:32:00,
2013-04-27 20:43:00,61.0,52.0,29.88,West,263,0.0,2.0,73,0.00,,,-99.99,,2013-04-28 03:43:00,
2013-04-27 20:53:00,61.0,52.0,29.88,West,263,0.0,2.0,73,0.00,,,-99.99,,2013-04-28 03:53:00,
2013-04-27 21:02:00,58.0,51.0,29.88,West,263,0.0,1.0,77,0.00,,,-99.99,,2013-04-28 04:02:00,
2013-04-27 21:13:00,58.0,51.0,29.88,West,263,0.0,1.0,77,0.00,,,-99.99,,2013-04-28 04:13:00,
2013-04-27 21:22:00,58.0,51.0,29.88,West,263,0.0,1.0,77,0.00,,,-99.99,,2013-04-28 04:22:00,
2013-04-27 21:32:00,58.0,52.0,29.89,West,263,0.0,1.0,80,0.00,,,-99.99,,2013-04-28 04:32:00,
2013-04-27 21:43:00,58.0,52.0,29.89,West,263,0.0,1.0,80,0.00,,,-99.99,,2013-04-28 04:43:00,
2013-04-27 21:53:00,58.0,52.0,29.89,West,263,0.0,1.0,80,0.00,,,-99.99,,2013-04-28 04:53:00,
2013-04-27 22:02:00,57.0,52.0,29.89,West,263,0.0,0.0,82,0.00,,,-99.99,,2013-04-28 05:02:00,
2013-04-27 22:12:00,57.0,52.0,29.89,West,263,0.0,0.0,82,0.00,,,-99.99,,2013-04-28 05:12:00,
2013-04-27 22:22:00,57.0,52.0,29.89,West,263,0.0,0.0,82,0.00,,,-99.99,,2013-04-28 05:22:00,
2013-04-27 22:32:00,56.0,51.0,29.89,West,263,0.0,0.0,82,0.00,,,-99.99,,2013-04-28 05:32:00,
2013-04-27 22:42:00,56.0,51.0,29.89,West,263,0.0,0.0,82,0.00,,,-99.99,,2013-04-28 05:42:00,
2013-04-27 22:52:00,56.0,51.0,29.89,West,263,0.0,0.0,82,0.00,,,-99.99,,2013-04-28 05:52:00,
2013-04-27 23:01:00,56.0,51.0,29.89,West,263,0.0,0.0,84,0.00,,,-99.99,,2013-04-28 06:01:00,
2013-04-27 23:12:00,56.0,51.0,29.89,West,263,0.0,0.0,84,0.00,,,-99.99,,2013-04-28 06:12:00,
2013-04-27 23:21:00,56.0,51.0,29.89,West,263,0.0,0.0,84,0.00,,,-99.99,,2013-04-28 06:21:00,
2013-04-27 23:32:00,55.0,50.0,29.89,West,263,0.0,0.0,84,0.00,,,-99.99,,2013-04-28 06:32:00,
2013-04-27 23:42:00,55.0,50.0,29.89,West,263,0.0,0.0,84,0.00,,,-99.99,,2013-04-28 06:42:00,
2013-04-27 23:52:00,55.0,50.0,29.89,West,263,0.0,0.0,84,0.00,,,-99.99,,2013-04-28 06:52:00,